Time;durP1;ratioP1;P1;durP2;ratioP2;P2;SDS_P1;SDS_P2;PMS_P1;PMS_P2;Temp;Humidity;BMP_temperature;BMP_pressure;BME280_temperature;BME280_humidity;BME280_pressure;Samples;Min_cycle;Max_cycle;Signal;HPM_P1;HPM_P2
2021/01/02 00:02:26;;;;;;;52.63;24.70;;;;;;;2.81;100.00;100735.38;4973128;28;20121;-70
2021/01/02 00:04:51;;;;;;;54.10;26.00;;;;;;;2.74;100.00;100742.66;4963599;28;20045;-70
2021/01/02 00:07:32;;;;;;;47.30;24.70;;;;;;;2.79;100.00;100734.53;4970831;28;20042;-70
2021/01/02 00:10:00;;;;;;;50.55;24.23;;;;;;;2.78;100.00;100741.63;4937286;28;20045;-71
2021/01/02 00:12:50;;;;;;;55.53;25.50;;;;;;;2.79;100.00;100737.19;4951756;28;20066;-70
2021/01/02 00:15:23;;;;;;;57.63;26.17;;;;;;;2.90;100.00;100740.34;4949545;28;20107;-70
2021/01/02 00:18:10;;;;;;;52.70;25.33;;;;;;;2.79;100.00;100745.16;4956039;28;20106;-70
2021/01/02 00:21:02;;;;;;;52.85;24.15;;;;;;;2.73;100.00;100748.88;4967178;28;20039;-70
2021/01/02 00:23:39;;;;;;;49.55;23.88;;;;;;;2.75;100.00;100746.16;4967973;28;20034;-70
2021/01/02 00:26:42;;;;;;;55.75;25.00;;;;;;;2.76;100.00;100747.91;4969391;28;20038;-70
2021/01/02 00:29:15;;;;;;;57.53;25.63;;;;;;;2.72;100.00;100751.56;4967671;28;20525;-70
2021/01/02 00:31:55;;;;;;;52.30;24.70;;;;;;;2.89;100.00;100749.25;4949464;28;20064;-70
2021/01/02 00:34:50;;;;;;;52.90;24.45;;;;;;;2.81;100.00;100751.28;4952819;28;20796;-70
2021/01/02 00:37:40;;;;;;;50.17;24.88;;;;;;;2.76;100.00;100755.84;4969370;28;20026;-70
2021/01/02 00:40:19;;;;;;;48.65;24.42;;;;;;;2.80;100.00;100749.53;4957125;28;20050;-70
2021/01/02 00:42:48;;;;;;;48.75;23.77;;;;;;;2.90;100.00;100756.25;4967105;28;20041;-70
2021/01/02 00:45:22;;;;;;;54.75;24.00;;;;;;;2.81;100.00;100759.22;4966224;28;20085;-70
2021/01/02 00:47:50;;;;;;;50.25;24.38;;;;;;;2.85;100.00;100763.50;4952250;28;20325;-70
2021/01/02 00:50:18;;;;;;;51.97;23.42;;;;;;;2.81;100.00;100756.56;4951725;28;20035;-70
2021/01/02 00:52:46;;;;;;;46.25;22.52;;;;;;;2.77;100.00;100755.81;4968032;28;20031;-70
2021/01/02 00:55:31;;;;;;;48.42;23.98;;;;;;;2.79;100.00;100763.69;4966614;28;20126;-70
2021/01/02 00:58:05;;;;;;;52.03;24.25;;;;;;;2.80;100.00;100754.84;4951983;28;20074;-70
2021/01/02 01:00:35;;;;;;;52.97;23.48;;;;;;;2.96;100.00;100761.41;4956739;28;20113;-70
2021/01/02 01:03:21;;;;;;;51.03;23.15;;;;;;;2.86;100.00;100765.25;4966790;28;20495;-70
2021/01/02 01:05:47;;;;;;;51.65;23.40;;;;;;;2.79;100.00;100761.03;4968602;28;20057;-70
2021/01/02 01:08:17;;;;;;;46.88;22.23;;;;;;;2.89;100.00;100766.94;4968099;28;20085;-70
2021/01/02 01:10:44;;;;;;;50.38;22.45;;;;;;;2.84;100.00;100767.94;4951444;28;20035;-70
2021/01/02 01:13:18;;;;;;;47.47;22.55;;;;;;;2.88;100.00;100771.38;4968028;28;20033;-70
2021/01/02 01:15:44;;;;;;;53.65;26.02;;;;;;;2.89;100.00;100769.59;4967882;28;20125;-70
2021/01/02 01:18:27;;;;;;;47.65;22.33;;;;;;;2.80;100.00;100776.03;4968199;28;20122;-70
2021/01/02 01:21:00;;;;;;;48.08;22.77;;;;;;;2.92;100.00;100775.66;4969406;28;20116;-70
2021/01/02 01:23:35;;;;;;;51.00;23.98;;;;;;;2.89;100.00;100781.06;4967568;28;20046;-71
2021/01/02 01:26:22;;;;;;;50.83;23.85;;;;;;;2.88;100.00;100776.69;4969121;28;20053;-70
2021/01/02 01:28:58;;;;;;;52.65;24.95;;;;;;;2.83;100.00;100782.13;4949295;28;20487;-70
2021/01/02 01:31:23;;;;;;;57.63;24.55;;;;;;;2.76;100.00;100790.31;4965545;28;20560;-71
2021/01/02 01:33:51;;;;;;;55.60;25.92;;;;;;;2.76;100.00;100791.19;4965525;28;20030;-71
2021/01/02 01:36:21;;;;;;;55.80;25.25;;;;;;;2.89;100.00;100782.84;4967593;28;20101;-71
2021/01/02 01:38:55;;;;;;;52.42;25.25;;;;;;;2.83;100.00;100786.56;4968964;28;20137;-71
2021/01/02 01:41:36;;;;;;;55.03;25.70;;;;;;;2.85;100.00;100787.38;4944791;28;20031;-71
2021/01/02 01:44:04;;;;;;;60.90;26.35;;;;;;;2.86;100.00;100789.09;4972431;28;20035;-71
2021/01/02 01:46:49;;;;;;;51.30;25.65;;;;;;;2.87;100.00;100788.19;4967023;28;20041;-70
2021/01/02 01:49:29;;;;;;;54.00;26.85;;;;;;;2.83;100.00;100790.09;4967180;28;20415;-70
2021/01/02 01:52:03;;;;;;;60.75;26.90;;;;;;;2.89;100.00;100796.97;4949268;28;20146;-71
2021/01/02 01:55:06;;;;;;;56.25;25.92;;;;;;;2.85;100.00;100793.53;4968876;28;20395;-71
2021/01/02 01:57:40;;;;;;;56.75;26.02;;;;;;;2.78;100.00;100789.34;4966929;28;21196;-71
2021/01/02 02:00:09;;;;;;;53.17;26.90;;;;;;;2.82;100.00;100792.78;4968687;28;20039;-70
2021/01/02 02:02:47;;;;;;;51.67;25.15;;;;;;;2.90;100.00;100790.72;4969244;28;20049;-71
2021/01/02 02:05:20;;;;;;;53.53;25.80;;;;;;;2.88;100.00;100794.38;4971944;28;20039;-71
2021/01/02 02:08:05;;;;;;;57.65;25.20;;;;;;;2.75;100.00;100789.44;4951601;28;20039;-71
2021/01/02 02:10:43;;;;;;;55.22;26.05;;;;;;;2.77;100.00;100792.94;4954085;28;20034;-71
2021/01/02 02:13:18;;;;;;;56.78;25.58;;;;;;;2.83;100.00;100789.22;4952601;28;20066;-71
2021/01/02 02:15:49;;;;;;;55.67;26.48;;;;;;;2.78;100.00;100793.75;4970298;28;20232;-71
2021/01/02 02:18:23;;;;;;;57.70;26.38;;;;;;;2.68;100.00;100787.03;4957052;28;20031;-71
2021/01/02 02:20:53;;;;;;;54.53;26.05;;;;;;;2.79;100.00;100798.16;4972223;28;20045;-71
2021/01/02 02:23:39;;;;;;;57.15;26.63;;;;;;;2.68;100.00;100793.19;4970257;28;20137;-71
2021/01/02 02:26:29;;;;;;;54.08;25.88;;;;;;;2.64;100.00;100796.00;4967819;28;20037;-71
2021/01/02 02:28:54;;;;;;;55.90;25.85;;;;;;;2.65;100.00;100793.31;4971290;28;20123;-71
2021/01/02 02:31:23;;;;;;;61.70;27.92;;;;;;;2.56;100.00;100790.91;4970355;28;20115;-71
2021/01/02 02:34:02;;;;;;;62.70;26.60;;;;;;;2.58;100.00;100794.41;4971258;28;20042;-71
2021/01/02 02:36:30;;;;;;;57.60;26.73;;;;;;;2.59;100.00;100787.31;4969114;28;20046;-71
2021/01/02 02:39:04;;;;;;;59.47;27.08;;;;;;;2.65;100.00;100787.13;4969639;28;20038;-71
2021/01/02 02:41:35;;;;;;;58.03;27.27;;;;;;;2.67;100.00;100785.28;4938320;28;20037;-71
2021/01/02 02:44:03;;;;;;;63.78;26.75;;;;;;;2.60;100.00;100784.59;4973581;28;20045;-71
2021/01/02 02:46:33;;;;;;;53.30;24.05;;;;;;;2.63;100.00;100783.66;4970985;28;20038;-71
2021/01/02 02:49:05;;;;;;;56.38;26.10;;;;;;;2.52;100.00;100780.47;4952413;28;20038;-71
2021/01/02 02:51:34;;;;;;;59.63;26.33;;;;;;;2.51;100.00;100784.03;4965179;28;20069;-71
2021/01/02 02:54:00;;;;;;;56.83;26.27;;;;;;;2.51;100.00;100781.38;4956469;28;20038;-70
2021/01/02 02:56:27;;;;;;;53.97;24.40;;;;;;;2.61;100.00;100780.19;4967559;28;20123;-71
2021/01/02 02:58:52;;;;;;;56.90;26.67;;;;;;;2.55;100.00;100785.66;4971079;28;20114;-71
2021/01/02 03:01:18;;;;;;;64.10;26.85;;;;;;;2.60;100.00;100786.38;4969918;28;20475;-71
2021/01/02 03:03:44;;;;;;;56.72;26.00;;;;;;;2.60;100.00;100784.59;4967726;28;20089;-71
2021/01/02 03:06:09;;;;;;;56.38;26.55;;;;;;;2.56;100.00;100782.97;4969442;28;20035;-71
2021/01/02 03:08:35;;;;;;;56.97;25.52;;;;;;;2.46;100.00;100791.25;4956205;28;20488;-71
2021/01/02 03:11:02;;;;;;;53.63;25.58;;;;;;;2.46;100.00;100791.25;4973689;28;20527;-71
2021/01/02 03:13:28;;;;;;;55.85;27.10;;;;;;;2.44;100.00;100797.47;4970391;28;20047;-71
2021/01/02 03:15:53;;;;;;;57.50;25.55;;;;;;;2.58;100.00;100805.00;4970836;28;20027;-71
2021/01/02 03:18:18;;;;;;;55.50;27.38;;;;;;;2.48;100.00;100805.31;4968439;28;20121;-71
2021/01/02 03:20:44;;;;;;;54.35;24.75;;;;;;;2.52;100.00;100801.66;4970375;28;20030;-70
2021/01/02 03:23:09;;;;;;;60.13;26.80;;;;;;;2.58;100.00;100806.78;4970627;28;20513;-70
2021/01/02 03:25:35;;;;;;;57.38;25.95;;;;;;;2.53;100.00;100806.06;4970195;28;20138;-71
2021/01/02 03:28:00;;;;;;;54.85;25.13;;;;;;;2.54;100.00;100806.00;4952990;28;20488;-70
2021/01/02 03:30:29;;;;;;;55.88;27.35;;;;;;;2.59;100.00;100798.78;4972843;28;20043;-71
2021/01/02 03:32:54;;;;;;;60.28;26.38;;;;;;;2.55;100.00;100801.56;4971713;28;20475;-71
2021/01/02 03:35:20;;;;;;;56.80;25.35;;;;;;;2.52;100.00;100802.53;4972963;28;20045;-71
2021/01/02 03:37:48;;;;;;;61.50;25.33;;;;;;;2.51;100.00;100799.94;4972232;28;20037;-71
2021/01/02 03:40:15;;;;;;;54.13;25.65;;;;;;;2.57;100.00;100799.75;4969085;28;20412;-71
2021/01/02 03:42:46;;;;;;;54.72;26.35;;;;;;;2.43;100.00;100797.50;4972238;28;20041;-71
2021/01/02 03:45:15;;;;;;;56.90;26.88;;;;;;;2.60;100.00;100796.97;4974087;28;20039;-71
2021/01/02 03:47:44;;;;;;;50.85;25.13;;;;;;;2.52;100.00;100791.06;4969124;28;20058;-71
2021/01/02 03:50:10;;;;;;;56.78;26.17;;;;;;;2.65;100.00;100803.03;4974699;28;20035;-71
2021/01/02 03:52:36;;;;;;;58.83;26.33;;;;;;;2.56;100.00;100795.34;4952587;28;20487;-71
2021/01/02 03:55:04;;;;;;;62.15;27.80;;;;;;;2.51;100.00;100790.19;4969113;28;20576;-71
2021/01/02 03:57:29;;;;;;;58.75;26.20;;;;;;;2.59;100.00;100789.97;4971246;28;20442;-71
2021/01/02 03:59:55;;;;;;;60.03;27.48;;;;;;;2.62;100.00;100781.91;4956053;28;20043;-71
2021/01/02 04:02:20;;;;;;;59.55;27.77;;;;;;;2.58;100.00;100790.88;4969557;28;20034;-71
2021/01/02 04:04:46;;;;;;;62.67;28.17;;;;;;;2.52;100.00;100783.13;4952416;28;20042;-70
2021/01/02 04:07:11;;;;;;;59.00;27.02;;;;;;;2.37;100.00;100782.66;4969565;28;20034;-71
2021/01/02 04:09:36;;;;;;;63.25;27.13;;;;;;;2.50;100.00;100791.09;4966716;28;20388;-71
2021/01/02 04:12:02;;;;;;;62.75;27.27;;;;;;;2.57;100.00;100783.84;4970725;28;20039;-70
2021/01/02 04:14:27;;;;;;;64.32;28.73;;;;;;;2.59;100.00;100787.31;4973364;28;20031;-70
2021/01/02 04:16:53;;;;;;;67.57;29.63;;;;;;;2.52;100.00;100781.34;4969842;28;20026;-71
2021/01/02 04:19:18;;;;;;;69.57;30.17;;;;;;;2.43;100.00;100777.19;4972154;28;20114;-70
2021/01/02 04:21:46;;;;;;;67.70;29.42;;;;;;;2.55;100.00;100775.06;4969355;28;20472;-71
2021/01/02 04:24:11;;;;;;;67.63;29.15;;;;;;;2.52;100.00;100777.81;4970443;28;20030;-70
2021/01/02 04:26:36;;;;;;;61.95;28.92;;;;;;;2.51;100.00;100778.72;4953446;28;20057;-71
2021/01/02 04:29:02;;;;;;;71.22;28.75;;;;;;;2.59;100.00;100776.72;4969648;28;20043;-71
2021/01/02 04:31:36;;;;;;;68.63;30.95;;;;;;;2.55;100.00;100777.72;4969938;28;20134;-70
2021/01/02 04:34:05;;;;;;;67.85;28.25;;;;;;;2.57;100.00;100778.53;4965201;28;20523;-71
2021/01/02 04:36:31;;;;;;;69.68;28.67;;;;;;;2.49;100.00;100777.91;4967970;28;20068;-70
2021/01/02 04:38:57;;;;;;;67.13;28.15;;;;;;;2.44;100.00;100786.88;4970748;28;20074;-70
2021/01/02 04:41:22;;;;;;;66.22;29.27;;;;;;;2.53;100.00;100784.88;4973161;28;20138;-71
2021/01/02 04:43:50;;;;;;;68.65;30.50;;;;;;;2.51;100.00;100787.56;4954200;28;20031;-71
2021/01/02 04:46:16;;;;;;;65.85;29.35;;;;;;;2.47;100.00;100790.34;4968766;28;20058;-70
2021/01/02 04:48:44;;;;;;;69.50;29.98;;;;;;;2.42;100.00;100791.34;4967053;28;20083;-70
2021/01/02 04:51:10;;;;;;;69.22;29.42;;;;;;;2.44;100.00;100789.50;4959752;28;20038;-70
2021/01/02 04:53:36;;;;;;;64.60;28.25;;;;;;;2.43;100.00;100787.78;4969266;28;20280;-70
2021/01/02 04:56:04;;;;;;;71.90;29.90;;;;;;;2.42;100.00;100790.47;4951770;28;20163;-70
2021/01/02 04:58:31;;;;;;;71.95;30.75;;;;;;;2.53;100.00;100788.34;4965852;28;20220;-71
2021/01/02 05:00:57;;;;;;;65.47;28.95;;;;;;;2.55;100.00;100790.97;4947812;28;20049;-71
2021/01/02 05:03:23;;;;;;;65.22;28.75;;;;;;;2.48;100.00;100794.69;4968202;28;20038;-71
2021/01/02 05:05:50;;;;;;;68.93;29.70;;;;;;;2.51;100.00;100792.84;4969480;28;20143;-71
2021/01/02 05:08:15;;;;;;;65.40;29.88;;;;;;;2.56;100.00;100800.66;4970555;28;20113;-70
2021/01/02 05:10:40;;;;;;;66.38;28.48;;;;;;;2.64;100.00;100796.00;4951876;28;20157;-71
2021/01/02 05:13:15;;;;;;;72.35;28.75;;;;;;;2.62;100.00;100795.16;4950154;28;20432;-71
2021/01/02 05:15:41;;;;;;;79.65;30.88;;;;;;;2.51;100.00;100794.63;4968315;28;20037;-71
2021/01/02 05:18:07;;;;;;;74.00;30.38;;;;;;;2.46;100.00;100793.91;4967235;28;20051;-71
2021/01/02 05:20:33;;;;;;;75.28;29.98;;;;;;;2.42;100.00;100795.75;4974698;28;20082;-70
2021/01/02 05:23:10;;;;;;;72.70;30.38;;;;;;;2.42;100.00;100796.63;4971668;28;20039;-71
2021/01/02 05:25:37;;;;;;;73.65;32.95;;;;;;;2.48;100.00;100805.31;4967688;28;20068;-70
2021/01/02 05:28:03;;;;;;;76.03;31.23;;;;;;;2.49;100.00;100807.03;4949399;28;20113;-70
2021/01/02 05:30:32;;;;;;;72.13;29.20;;;;;;;2.42;100.00;100801.94;4968504;28;20507;-71
2021/01/02 05:33:08;;;;;;;74.32;30.02;;;;;;;2.62;100.00;100808.41;4966185;28;20043;-70
2021/01/02 05:35:41;;;;;;;72.93;30.92;;;;;;;2.49;100.00;100809.69;4967066;28;20027;-71
2021/01/02 05:38:21;;;;;;;73.43;31.20;;;;;;;2.55;100.00;100807.72;4955813;28;20102;-70
2021/01/02 05:40:50;;;;;;;72.88;29.98;;;;;;;2.60;100.00;100815.53;4967337;28;20073;-70
2021/01/02 05:43:19;;;;;;;67.38;30.48;;;;;;;2.49;100.00;100807.03;4967840;28;20129;-70
2021/01/02 05:45:44;;;;;;;70.88;29.58;;;;;;;2.43;100.00;100813.41;4952203;28;20046;-70
2021/01/02 05:48:18;;;;;;;76.97;31.13;;;;;;;2.43;100.00;100819.56;4967809;28;20038;-70
2021/01/02 05:50:50;;;;;;;78.50;30.83;;;;;;;2.42;100.00;100812.53;4954419;28;20556;-71
2021/01/02 05:53:24;;;;;;;79.03;30.33;;;;;;;2.40;100.00;100817.03;4968454;28;20031;-70
2021/01/02 05:56:14;;;;;;;75.22;29.90;;;;;;;2.41;100.00;100818.72;4951523;28;20038;-70
2021/01/02 05:58:46;;;;;;;80.22;31.60;;;;;;;2.59;100.00;100824.41;4967204;28;20069;-70
2021/01/02 06:01:15;;;;;;;74.07;31.30;;;;;;;2.51;100.00;100821.13;4964377;28;20057;-71
2021/01/02 06:03:43;;;;;;;87.72;30.23;;;;;;;2.46;100.00;100834.50;4952290;28;20043;-70
2021/01/02 06:06:11;;;;;;;77.22;30.67;;;;;;;2.51;100.00;100826.41;4950108;28;20415;-70
2021/01/02 06:08:48;;;;;;;78.93;31.65;;;;;;;2.49;100.00;100830.88;4967838;28;20058;-70
2021/01/02 06:11:23;;;;;;;78.82;32.25;;;;;;;2.49;100.00;100837.06;4965545;28;20035;-71
2021/01/02 06:13:51;;;;;;;70.53;31.02;;;;;;;2.47;100.00;100835.38;4969220;28;20031;-70
2021/01/02 06:16:17;;;;;;;72.32;30.00;;;;;;;2.47;100.00;100840.69;4965735;28;20502;-70
2021/01/02 06:18:44;;;;;;;75.15;30.77;;;;;;;2.50;100.00;100843.22;4967998;28;20085;-70
2021/01/02 06:21:14;;;;;;;80.32;30.70;;;;;;;2.54;100.00;100836.91;4948839;28;20053;-70
2021/01/02 06:23:41;;;;;;;76.35;32.10;;;;;;;2.47;100.00;100840.69;4968730;28;20081;-70
2021/01/02 06:26:09;;;;;;;72.75;32.05;;;;;;;2.50;100.00;100843.22;4967657;28;20625;-70
2021/01/02 06:28:36;;;;;;;72.53;32.10;;;;;;;2.56;100.00;100846.56;4964988;28;20395;-70
2021/01/02 06:31:09;;;;;;;75.80;31.35;;;;;;;2.67;100.00;100840.94;4970003;28;20054;-70
2021/01/02 06:33:35;;;;;;;83.60;32.45;;;;;;;2.62;100.00;100840.22;4950175;28;20395;-70
2021/01/02 06:36:02;;;;;;;78.75;32.78;;;;;;;2.56;100.00;100845.69;4966704;28;20043;-70
2021/01/02 06:38:27;;;;;;;74.75;31.23;;;;;;;2.50;100.00;100848.53;4949135;28;20202;-70
2021/01/02 06:40:58;;;;;;;69.40;29.58;;;;;;;2.61;100.00;100838.47;4967617;28;20503;-70
2021/01/02 06:43:36;;;;;;;83.70;31.25;;;;;;;2.51;100.00;100842.31;4966111;28;20034;-70
2021/01/02 06:46:02;;;;;;;80.85;31.58;;;;;;;2.55;100.00;100839.53;4967463;28;20041;-70
2021/01/02 06:48:32;;;;;;;80.63;33.38;;;;;;;2.46;100.00;100845.13;4967413;28;20581;-70
2021/01/02 06:51:03;;;;;;;79.97;31.70;;;;;;;2.53;100.00;100848.44;4952484;28;20053;-70
2021/01/02 06:53:35;;;;;;;77.90;31.70;;;;;;;2.52;100.00;100846.72;4969906;28;20030;-71
2021/01/02 06:56:02;;;;;;;80.15;31.65;;;;;;;2.52;100.00;100842.28;4971226;28;20125;-71
2021/01/02 06:58:35;;;;;;;78.15;32.05;;;;;;;2.62;100.00;100850.81;4952594;28;20135;-70
2021/01/02 07:01:04;;;;;;;82.65;32.10;;;;;;;2.60;100.00;100855.28;4971866;28;20419;-70
2021/01/02 07:03:43;;;;;;;78.15;31.17;;;;;;;2.68;100.00;100859.44;4953263;28;20128;-71
2021/01/02 07:06:35;;;;;;;76.63;30.45;;;;;;;2.61;100.00;100867.63;4970521;28;20084;-70
2021/01/02 07:09:14;;;;;;;82.35;32.15;;;;;;;2.64;100.00;100864.91;4971994;28;20059;-70
2021/01/02 07:11:48;;;;;;;77.38;30.25;;;;;;;2.54;100.00;100863.41;4968047;28;20600;-71
2021/01/02 07:14:24;;;;;;;74.45;29.48;;;;;;;2.50;100.00;100869.72;4968126;28;20255;-71
2021/01/02 07:16:52;;;;;;;70.65;30.30;;;;;;;2.52;100.00;100867.91;4968305;28;20038;-70
2021/01/02 07:19:24;;;;;;;77.88;30.42;;;;;;;2.54;100.00;100868.72;4971349;28;20085;-71
2021/01/02 07:22:06;;;;;;;80.70;30.98;;;;;;;2.60;100.00;100877.34;4969513;28;20034;-70
2021/01/02 07:24:57;;;;;;;84.25;30.10;;;;;;;2.47;100.00;100873.31;4969881;28;20062;-70
2021/01/02 07:27:24;;;;;;;84.10;31.63;;;;;;;2.43;100.00;100872.53;4968738;28;20043;-70
2021/01/02 07:30:14;;;;;;;80.55;30.92;;;;;;;2.43;100.00;100877.84;4952070;28;20422;-70
2021/01/02 07:32:41;;;;;;;75.10;30.77;;;;;;;2.58;100.00;100870.38;4970549;28;20058;-70
2021/01/02 07:35:15;;;;;;;83.53;31.63;;;;;;;2.52;100.00;100881.16;4968839;28;20559;-71
2021/01/02 07:37:43;;;;;;;77.63;31.27;;;;;;;2.42;100.00;100881.41;4968986;28;20088;-70
2021/01/02 07:40:11;;;;;;;83.13;32.55;;;;;;;2.46;100.00;100878.69;4954050;28;20066;-71
2021/01/02 07:42:40;;;;;;;74.78;31.17;;;;;;;2.55;100.00;100886.34;4970250;28;20096;-70
2021/01/02 07:45:12;;;;;;;75.22;30.60;;;;;;;2.48;100.00;100890.06;4954831;28;20038;-70
2021/01/02 07:47:48;;;;;;;81.43;32.15;;;;;;;2.48;100.00;100884.78;4970230;28;20039;-70
2021/01/02 07:50:17;;;;;;;81.43;30.55;;;;;;;2.49;100.00;100891.81;4970003;28;20411;-70
2021/01/02 07:52:50;;;;;;;79.57;31.98;;;;;;;2.54;100.00;100897.84;4969580;28;20383;-70
2021/01/02 07:55:16;;;;;;;73.35;30.08;;;;;;;2.51;100.00;100897.97;4952513;28;20551;-71
2021/01/02 07:57:42;;;;;;;91.75;33.45;;;;;;;2.61;100.00;100896.75;4952840;28;20046;-71
2021/01/02 08:00:09;;;;;;;75.07;30.13;;;;;;;2.60;100.00;100898.53;4968596;28;20030;-70
2021/01/02 08:02:41;;;;;;;83.68;32.15;;;;;;;2.58;100.00;100897.75;4971919;28;20023;-70
2021/01/02 08:05:12;;;;;;;76.78;31.35;;;;;;;2.63;100.00;100900.25;4969121;28;20034;-70
2021/01/02 08:07:39;;;;;;;88.00;32.83;;;;;;;2.53;100.00;100894.34;4969073;28;20097;-70
2021/01/02 08:10:08;;;;;;;81.60;30.52;;;;;;;2.47;100.00;100893.66;4976416;28;20042;-70
2021/01/02 08:12:35;;;;;;;82.53;32.22;;;;;;;2.60;100.00;100900.31;4968824;28;20122;-70
2021/01/02 08:15:01;;;;;;;86.53;30.77;;;;;;;2.62;100.00;100909.09;4977247;28;20098;-70
2021/01/02 08:17:37;;;;;;;82.32;30.52;;;;;;;2.57;100.00;100911.91;4971662;28;20536;-70
2021/01/02 08:20:03;;;;;;;83.95;30.60;;;;;;;2.54;100.00;100905.81;4970605;28;20495;-70
2021/01/02 08:22:30;;;;;;;85.90;31.23;;;;;;;2.53;100.00;100914.69;4967141;28;20078;-70
2021/01/02 08:24:57;;;;;;;86.88;30.23;;;;;;;2.55;100.00;100912.84;4952577;28;20045;-71
2021/01/02 08:27:24;;;;;;;85.07;30.88;;;;;;;2.49;100.00;100920.97;4967641;28;20118;-70
2021/01/02 08:29:49;;;;;;;90.05;33.15;;;;;;;2.60;100.00;100916.22;4970169;28;20576;-70
2021/01/02 08:32:15;;;;;;;86.47;31.05;;;;;;;2.60;100.00;100917.09;4969202;28;20031;-70
2021/01/02 08:34:44;;;;;;;85.22;30.45;;;;;;;2.64;100.00;100917.91;4967149;28;20038;-70
2021/01/02 08:37:11;;;;;;;84.00;30.33;;;;;;;2.57;100.00;100916.31;4951430;28;20035;-70
2021/01/02 08:39:38;;;;;;;84.18;30.90;;;;;;;2.61;100.00;100920.63;4969808;28;20034;-71
2021/01/02 08:42:05;;;;;;;73.90;29.38;;;;;;;2.66;100.00;100921.34;4967893;28;20039;-70
2021/01/02 08:44:35;;;;;;;75.72;28.80;;;;;;;2.65;100.00;100925.81;4955241;28;20034;-70
2021/01/02 08:47:04;;;;;;;87.53;31.77;;;;;;;2.70;100.00;100921.25;4969582;28;20034;-70
2021/01/02 08:49:42;;;;;;;91.10;35.72;;;;;;;2.70;100.00;100928.31;4969456;28;20431;-70
2021/01/02 08:52:21;;;;;;;80.45;31.42;;;;;;;2.63;100.00;100934.69;4953045;28;20663;-70
2021/01/02 08:54:48;;;;;;;81.38;31.90;;;;;;;2.69;100.00;100932.75;4970195;28;20054;-71
2021/01/02 08:57:31;;;;;;;86.80;31.33;;;;;;;2.76;100.00;100930.78;4969297;28;20084;-71
2021/01/02 09:00:17;;;;;;;78.10;31.40;;;;;;;2.78;100.00;100936.91;4970699;28;20060;-71
2021/01/02 09:03:06;;;;;;;72.60;28.08;;;;;;;2.75;100.00;100934.34;4968842;28;20065;-70
2021/01/02 09:05:37;;;;;;;76.65;28.83;;;;;;;2.76;100.00;100938.75;4966544;28;20117;-70
2021/01/02 09:08:05;;;;;;;97.57;32.80;;;;;;;2.74;100.00;100940.56;4950797;28;20046;-70
2021/01/02 09:10:34;;;;;;;98.65;35.63;;;;;;;2.75;100.00;100944.94;4968975;28;20039;-70
2021/01/02 09:12:59;;;;;;;95.82;33.33;;;;;;;2.80;100.00;100948.34;4967123;28;20039;-70
2021/01/02 09:15:49;;;;;;;99.85;39.40;;;;;;;2.74;100.00;100948.50;4969620;28;20451;-70
2021/01/02 09:18:18;;;;;;;87.88;33.72;;;;;;;2.76;100.00;100959.94;4965657;28;20049;-70
2021/01/02 09:20:44;;;;;;;91.18;33.28;;;;;;;2.82;100.00;100958.00;4969633;28;20022;-70
2021/01/02 09:23:10;;;;;;;82.85;30.58;;;;;;;2.87;100.00;100956.97;4967416;28;20502;-70
2021/01/02 09:25:38;;;;;;;79.70;29.90;;;;;;;2.82;100.00;100963.28;4968714;28;20050;-70
2021/01/02 09:28:17;;;;;;;84.07;30.27;;;;;;;2.88;100.00;100964.91;4951265;28;20043;-70
2021/01/02 09:30:44;;;;;;;90.43;31.98;;;;;;;2.99;100.00;100965.44;4968526;28;20043;-70
2021/01/02 09:33:10;;;;;;;88.68;31.52;;;;;;;3.02;100.00;100970.69;4966955;28;20557;-70
2021/01/02 09:35:36;;;;;;;83.55;30.35;;;;;;;2.97;100.00;100964.59;4968406;28;20073;-70
2021/01/02 09:38:03;;;;;;;83.00;31.42;;;;;;;2.96;100.00;100973.50;4968302;28;20041;-70
2021/01/02 09:40:29;;;;;;;80.80;30.15;;;;;;;2.94;100.00;100969.16;4974495;28;20038;-70
2021/01/02 09:42:55;;;;;;;85.47;31.95;;;;;;;3.06;100.00;100980.28;4971534;28;20121;-70
2021/01/02 09:45:20;;;;;;;81.85;30.73;;;;;;;3.07;100.00;100973.19;4971838;28;20043;-70
2021/01/02 09:47:45;;;;;;;88.80;31.55;;;;;;;3.09;100.00;100969.56;4969301;28;20042;-70
2021/01/02 09:50:11;;;;;;;110.03;50.72;;;;;;;3.18;100.00;100979.91;4969310;28;20039;-70
2021/01/02 09:52:37;;;;;;;93.30;37.47;;;;;;;3.31;100.00;100982.19;4969476;28;20034;-70
2021/01/02 09:55:03;;;;;;;92.78;33.95;;;;;;;3.15;100.00;100974.69;4968286;28;20038;-70
2021/01/02 09:57:29;;;;;;;84.15;29.90;;;;;;;3.37;100.00;100979.34;4936691;28;20190;-70
2021/01/02 09:59:54;;;;;;;85.57;33.97;;;;;;;3.21;100.00;100976.28;4968904;28;20038;-70
2021/01/02 10:02:20;;;;;;;93.65;33.80;;;;;;;3.30;100.00;100975.13;4969336;28;20057;-71
2021/01/02 10:04:48;;;;;;;87.20;31.25;;;;;;;3.31;100.00;100975.09;4969250;28;20034;-70
2021/01/02 10:07:15;;;;;;;86.10;30.23;;;;;;;3.30;100.00;100983.09;4967686;28;20125;-70
2021/01/02 10:09:44;;;;;;;92.88;30.45;;;;;;;3.34;100.00;100979.44;4968227;28;20034;-70
2021/01/02 10:12:10;;;;;;;80.53;29.92;;;;;;;3.34;100.00;100979.44;4935502;28;20451;-70
2021/01/02 10:14:37;;;;;;;87.70;29.48;;;;;;;3.26;100.00;100982.34;4951548;28;20031;-71
2021/01/02 10:17:04;;;;;;;86.95;30.13;;;;;;;3.42;100.00;100982.72;4967766;28;20031;-70
2021/01/02 10:19:31;;;;;;;85.50;29.25;;;;;;;3.32;100.00;100983.94;4971935;28;20058;-70
2021/01/02 10:21:57;;;;;;;82.10;29.48;;;;;;;3.39;100.00;100982.84;4970056;28;20034;-70
2021/01/02 10:24:23;;;;;;;86.50;30.40;;;;;;;3.45;100.00;100977.34;4976749;28;20034;-70
2021/01/02 10:26:48;;;;;;;89.22;32.15;;;;;;;3.38;100.00;100981.09;4967481;28;20039;-70
2021/01/02 10:29:13;;;;;;;80.85;30.38;;;;;;;3.37;100.00;100987.31;4970973;28;20121;-71
2021/01/02 10:31:39;;;;;;;95.13;32.67;;;;;;;3.44;100.00;100980.91;4972163;28;20035;-70
2021/01/02 10:34:04;;;;;;;89.13;30.40;;;;;;;3.37;100.00;100984.66;4970458;28;20391;-71
2021/01/02 10:36:30;;;;;;;91.65;33.13;;;;;;;3.33;100.00;100972.41;4970003;28;20098;-70
2021/01/02 10:38:55;;;;;;;88.78;31.95;;;;;;;3.35;100.00;100975.88;4955881;28;20106;-70
2021/01/02 10:41:21;;;;;;;88.22;29.85;;;;;;;3.45;100.00;100974.69;4941163;28;20034;-71
2021/01/02 10:43:48;;;;;;;85.53;31.83;;;;;;;3.47;100.00;100970.19;4973562;28;20451;-70
2021/01/02 10:46:14;;;;;;;89.32;32.40;;;;;;;3.47;100.00;100971.03;4953304;28;20407;-70
2021/01/02 10:48:39;;;;;;;91.88;30.05;;;;;;;3.57;100.00;100971.66;4970708;28;20030;-70
2021/01/02 10:51:05;;;;;;;84.00;29.23;;;;;;;3.64;100.00;100974.03;4971537;28;20066;-70
2021/01/02 10:53:30;;;;;;;79.70;28.35;;;;;;;3.58;100.00;100960.13;4954245;28;20042;-70
2021/01/02 10:55:56;;;;;;;79.63;29.77;;;;;;;3.57;100.00;100961.03;4977260;28;20474;-70
2021/01/02 10:58:22;;;;;;;80.82;31.90;;;;;;;3.57;100.00;100945.97;4970585;28;20105;-70
2021/01/02 11:00:47;;;;;;;92.60;32.75;;;;;;;3.70;100.00;100954.41;4953883;28;20116;-70
2021/01/02 11:03:12;;;;;;;139.52;48.90;;;;;;;3.69;100.00;100950.00;4957553;28;20038;-70
2021/01/02 11:05:38;;;;;;;96.05;36.58;;;;;;;3.69;100.00;100950.00;4954049;28;20124;-70
2021/01/02 11:08:04;;;;;;;82.28;30.70;;;;;;;3.75;100.00;100944.50;4970574;28;20399;-70
2021/01/02 11:10:30;;;;;;;94.13;33.38;;;;;;;3.75;100.00;100944.50;4971607;28;20157;-70
2021/01/02 11:12:55;;;;;;;79.47;29.85;;;;;;;3.75;100.00;100933.88;4955573;28;20113;-70
2021/01/02 11:15:20;;;;;;;78.93;26.73;;;;;;;3.81;100.00;100935.47;4974902;28;20027;-71
2021/01/02 11:17:46;;;;;;;81.05;27.73;;;;;;;3.82;100.00;100930.13;4969467;28;20476;-70
2021/01/02 11:20:12;;;;;;;78.65;28.63;;;;;;;3.83;100.00;100926.53;4970200;28;20110;-71
2021/01/02 11:22:37;;;;;;;75.13;28.58;;;;;;;3.85;100.00;100922.03;4972734;28;20045;-70
2021/01/02 11:25:03;;;;;;;80.50;28.80;;;;;;;3.90;100.00;100917.44;4976288;28;20042;-70